Time;durP1;ratioP1;P1;durP2;ratioP2;P2;SDS_P1;SDS_P2;PMS_P1;PMS_P2;Temp;Humidity;BMP_temperature;BMP_pressure;BME280_temperature;BME280_humidity;BME280_pressure;Samples;Min_cycle;Max_cycle;Signal;HPM_P1;HPM_P2
2022/12/09 00:00:13;;;;;;;19.77;8.23;;;;;;;9.77;45.35;100455.16;4873939;29;20518;-62
2022/12/09 00:02:38;;;;;;;34.03;8.85;;;;;;;9.78;45.99;100456.88;4888600;29;20158;-61
2022/12/09 00:05:04;;;;;;;18.40;7.65;;;;;;;9.74;45.48;100450.09;4897615;29;20519;-61
2022/12/09 00:07:29;;;;;;;19.85;7.55;;;;;;;9.74;45.76;100451.94;4889432;29;20040;-62
2022/12/09 00:09:55;;;;;;;19.33;8.75;;;;;;;9.70;45.67;100456.69;4889468;29;20032;-62
2022/12/09 00:12:20;;;;;;;16.58;6.82;;;;;;;9.65;45.99;100453.59;4897531;29;20121;-62
2022/12/09 00:14:45;;;;;;;21.17;7.97;;;;;;;9.61;45.60;100446.78;4874444;29;20032;-61
2022/12/09 00:17:11;;;;;;;17.90;8.07;;;;;;;9.57;46.39;100442.69;4888234;29;20044;-62
2022/12/09 00:19:36;;;;;;;16.50;7.95;;;;;;;9.61;45.86;100457.47;4885916;29;20795;-62
2022/12/09 00:22:01;;;;;;;20.00;7.45;;;;;;;9.58;45.62;100444.38;4884944;29;20082;-61
2022/12/09 00:24:27;;;;;;;16.58;7.15;;;;;;;9.61;45.91;100448.59;4896691;29;20056;-62
2022/12/09 00:26:52;;;;;;;14.13;6.30;;;;;;;9.57;45.75;100448.06;4887974;29;20029;-61
2022/12/09 00:29:17;;;;;;;18.42;7.72;;;;;;;9.63;46.18;100452.03;4885557;29;20036;-61
2022/12/09 00:31:43;;;;;;;21.73;8.60;;;;;;;9.62;46.51;100450.31;4897365;29;20064;-62
2022/12/09 00:34:10;;;;;;;17.25;7.75;;;;;;;9.64;46.04;100443.84;4865696;29;20049;-61
2022/12/09 00:36:36;;;;;;;22.85;8.10;;;;;;;9.69;46.08;100460.34;4865695;29;20040;-62
2022/12/09 00:39:01;;;;;;;20.27;7.32;;;;;;;9.70;45.62;100458.53;4898356;29;20116;-62
2022/12/09 00:41:27;;;;;;;16.25;8.20;;;;;;;9.75;46.18;100451.78;4881717;29;20073;-61
2022/12/09 00:43:53;;;;;;;21.77;8.68;;;;;;;9.80;46.92;100454.91;4882420;29;20075;-62
2022/12/09 00:46:18;;;;;;;16.67;7.55;;;;;;;9.84;45.74;100456.34;4865662;29;20073;-62
2022/12/09 00:48:44;;;;;;;23.02;8.90;;;;;;;9.91;45.80;100452.13;4881243;29;20040;-62
2022/12/09 00:51:14;;;;;;;22.17;8.73;;;;;;;9.95;45.63;100452.72;4881026;29;20064;-62
2022/12/09 00:53:39;;;;;;;24.27;7.20;;;;;;;9.98;46.11;100451.59;4883448;29;20025;-62
2022/12/09 00:56:05;;;;;;;18.40;7.18;;;;;;;9.98;45.87;100449.78;4869425;29;20510;-62
2022/12/09 00:58:30;;;;;;;17.15;7.32;;;;;;;9.97;45.91;100455.28;4884707;29;20064;-62
2022/12/09 01:00:56;;;;;;;17.98;8.45;;;;;;;9.91;45.78;100440.59;4869384;29;20051;-62
2022/12/09 01:03:22;;;;;;;17.88;8.15;;;;;;;9.93;46.09;100455.56;4884679;29;20112;-62
2022/12/09 01:05:47;;;;;;;25.83;7.80;;;;;;;9.97;45.33;100447.25;4885094;29;20534;-62
2022/12/09 01:08:13;;;;;;;26.58;8.90;;;;;;;9.98;45.77;100447.09;4869569;29;20483;-62
2022/12/09 01:10:40;;;;;;;17.45;7.13;;;;;;;9.95;45.79;100442.88;4884714;29;20040;-62
2022/12/09 01:13:06;;;;;;;14.52;7.47;;;;;;;9.96;46.24;100449.09;4868909;29;20036;-62
2022/12/09 01:15:31;;;;;;;19.08;7.55;;;;;;;10.00;45.97;100447.81;4884700;29;20092;-62
2022/12/09 01:17:57;;;;;;;20.17;7.53;;;;;;;10.01;46.26;100451.34;4885618;29;20045;-62
2022/12/09 01:20:22;;;;;;;19.05;7.55;;;;;;;9.99;45.98;100442.59;4901125;29;20124;-62
2022/12/09 01:22:48;;;;;;;17.70;7.60;;;;;;;9.97;45.57;100442.72;4885734;29;20489;-62
2022/12/09 01:25:13;;;;;;;16.05;7.53;;;;;;;9.95;46.44;100442.88;4869134;29;20029;-62
2022/12/09 01:27:39;;;;;;;21.83;7.95;;;;;;;9.93;46.11;100450.19;4869616;29;20043;-62
2022/12/09 01:30:06;;;;;;;14.25;6.90;;;;;;;9.95;46.08;100448.22;4901072;29;20036;-62
2022/12/09 01:32:31;;;;;;;15.77;7.22;;;;;;;9.92;45.95;100443.16;4885687;29;20491;-62
2022/12/09 01:34:56;;;;;;;19.50;7.43;;;;;;;9.97;45.87;100455.28;4884733;29;20047;-62
2022/12/09 01:37:22;;;;;;;15.57;7.03;;;;;;;9.97;46.21;100449.94;4884544;29;20084;-62
2022/12/09 01:39:47;;;;;;;13.82;6.15;;;;;;;10.00;45.92;100455.00;4901690;29;20410;-62
2022/12/09 01:42:22;;;;;;;17.25;8.40;;;;;;;10.04;46.68;100451.06;4884860;29;20107;-62
2022/12/09 01:45:18;;;;;;;18.15;7.43;;;;;;;10.08;45.99;100447.16;4902683;29;20032;-62
2022/12/09 01:47:44;;;;;;;16.27;7.35;;;;;;;10.09;45.87;100446.16;4901817;29;20435;-62
2022/12/09 01:50:10;;;;;;;15.82;7.88;;;;;;;10.12;45.92;100449.41;4853077;29;20070;-62
2022/12/09 01:52:35;;;;;;;20.40;8.02;;;;;;;10.17;46.26;100449.03;4868611;29;20554;-62
2022/12/09 01:55:00;;;;;;;19.05;8.15;;;;;;;10.20;46.56;100446.09;4868411;29;20125;-62
2022/12/09 01:57:26;;;;;;;17.35;7.10;;;;;;;10.21;46.25;100443.28;4868545;29;20036;-62
2022/12/09 01:59:52;;;;;;;18.70;7.70;;;;;;;10.21;45.75;100445.97;4853237;29;20032;-62
2022/12/09 02:02:18;;;;;;;15.95;7.82;;;;;;;10.22;46.02;100444.97;4869782;29;20032;-62
2022/12/09 02:04:46;;;;;;;18.83;8.98;;;;;;;10.20;45.50;100440.72;4867985;29;20060;-62
2022/12/09 02:07:11;;;;;;;16.02;7.60;;;;;;;10.22;46.09;100447.63;4883849;29;20040;-62
2022/12/09 02:09:38;;;;;;;20.75;8.05;;;;;;;10.26;46.16;100445.53;4883590;29;20044;-62
2022/12/09 02:12:29;;;;;;;18.90;7.13;;;;;;;10.25;46.35;100439.34;4868128;29;20036;-62
2022/12/09 02:15:02;;;;;;;17.63;7.68;;;;;;;10.29;46.27;100435.41;4884181;29;20148;-62
2022/12/09 02:17:49;;;;;;;18.50;6.88;;;;;;;10.32;45.99;100440.50;4883851;29;20041;-62
2022/12/09 02:20:25;;;;;;;15.57;7.30;;;;;;;10.32;46.25;100429.78;4868760;29;20041;-62
2022/12/09 02:23:13;;;;;;;14.32;7.38;;;;;;;10.37;45.86;100432.03;4868471;29;20036;-62
2022/12/09 02:25:44;;;;;;;21.48;8.32;;;;;;;10.39;45.73;100432.75;4883392;29;20056;-62
2022/12/09 02:28:28;;;;;;;20.80;7.03;;;;;;;10.40;45.97;100429.94;4883723;29;20037;-62
2022/12/09 02:31:18;;;;;;;14.13;6.43;;;;;;;10.39;45.40;100425.56;4900015;29;20088;-62
2022/12/09 02:34:05;;;;;;;18.92;8.10;;;;;;;10.39;46.20;100420.22;4899884;29;20444;-62
2022/12/09 02:36:43;;;;;;;18.30;8.05;;;;;;;10.36;46.12;100425.00;4883057;29;20043;-62
2022/12/09 02:39:09;;;;;;;15.80;7.15;;;;;;;10.40;45.86;100421.06;4868317;29;20039;-62
2022/12/09 02:41:36;;;;;;;18.73;8.55;;;;;;;10.39;45.99;100427.38;4883901;29;20028;-62
2022/12/09 02:44:10;;;;;;;16.23;7.20;;;;;;;10.34;46.02;100414.44;4867575;29;20072;-62
2022/12/09 02:46:35;;;;;;;19.20;6.68;;;;;;;10.43;45.97;100420.78;4883339;29;20040;-62
2022/12/09 02:49:01;;;;;;;34.80;9.18;;;;;;;10.44;46.18;100419.81;4852489;29;20037;-62
2022/12/09 02:51:29;;;;;;;16.92;7.18;;;;;;;10.47;45.57;100420.38;4882930;29;20032;-62
2022/12/09 02:54:03;;;;;;;18.23;8.95;;;;;;;10.49;45.66;100422.91;4867787;29;20487;-62
2022/12/09 02:56:28;;;;;;;20.30;7.80;;;;;;;10.49;45.62;100420.25;4882838;29;20033;-62
2022/12/09 02:58:54;;;;;;;22.42;8.35;;;;;;;10.53;45.78;100416.28;4899790;29;20043;-62
2022/12/09 03:01:45;;;;;;;16.42;7.43;;;;;;;10.56;46.44;100416.00;4882717;29;20402;-62
2022/12/09 03:04:17;;;;;;;20.70;8.73;;;;;;;10.56;46.16;100413.34;4891151;29;20120;-62
2022/12/09 03:06:46;;;;;;;24.25;8.55;;;;;;;10.61;46.10;100419.09;4899406;29;20067;-62
2022/12/09 03:09:19;;;;;;;17.10;7.90;;;;;;;10.59;46.17;100415.72;4899304;29;20028;-62
2022/12/09 03:11:45;;;;;;;15.93;6.78;;;;;;;10.63;45.93;100416.31;4868304;29;20084;-62
2022/12/09 03:14:32;;;;;;;28.13;8.50;;;;;;;10.61;46.80;100408.41;4882887;29;20068;-62
2022/12/09 03:17:15;;;;;;;24.90;8.18;;;;;;;10.64;46.34;100413.47;4881642;29;20047;-62
2022/12/09 03:19:46;;;;;;;16.20;7.00;;;;;;;10.63;45.85;100406.44;4882473;29;20037;-62
2022/12/09 03:22:16;;;;;;;15.68;7.68;;;;;;;10.65;45.98;100415.19;4867330;29;20100;-62
2022/12/09 03:24:47;;;;;;;17.83;7.68;;;;;;;10.65;45.89;100408.97;4882410;29;20035;-62
2022/12/09 03:27:17;;;;;;;18.40;8.23;;;;;;;10.64;45.96;100401.91;4882257;29;20494;-62
2022/12/09 03:29:43;;;;;;;13.15;7.32;;;;;;;10.65;46.11;100393.75;4867065;29;20390;-62
2022/12/09 03:32:09;;;;;;;23.33;8.77;;;;;;;10.65;45.53;100393.75;4866876;29;20044;-62
2022/12/09 03:34:37;;;;;;;23.65;8.38;;;;;;;10.68;45.70;100404.19;4882022;29;20040;-62
2022/12/09 03:37:03;;;;;;;18.10;8.02;;;;;;;10.64;46.37;100396.56;4882106;29;20040;-62
2022/12/09 03:39:31;;;;;;;20.55;8.65;;;;;;;10.63;45.70;100385.03;4882116;29;20029;-62
2022/12/09 03:41:59;;;;;;;21.25;8.05;;;;;;;10.64;46.06;100386.69;4866935;29;20032;-62
2022/12/09 03:44:38;;;;;;;15.48;6.53;;;;;;;10.63;46.12;100387.69;4882015;29;20172;-62
2022/12/09 03:47:05;;;;;;;21.17;8.45;;;;;;;10.58;46.10;100384.56;4898560;29;20111;-62
2022/12/09 03:49:31;;;;;;;15.15;7.65;;;;;;;10.58;46.00;100387.25;4866518;29;20036;-62
2022/12/09 03:52:21;;;;;;;17.60;7.90;;;;;;;10.58;46.01;100389.94;4866314;29;20387;-62
2022/12/09 03:54:51;;;;;;;15.10;7.97;;;;;;;10.54;45.48;100385.84;4860997;29;20761;-62
2022/12/09 03:57:17;;;;;;;14.82;8.25;;;;;;;10.55;45.71;100387.56;4881800;29;20029;-62
2022/12/09 03:59:53;;;;;;;14.48;7.38;;;;;;;10.52;45.82;100387.84;4866511;29;20455;-62
2022/12/09 04:02:18;;;;;;;17.58;8.00;;;;;;;10.46;45.75;100389.25;4866270;29;20043;-62
2022/12/09 04:04:44;;;;;;;21.73;7.72;;;;;;;10.45;46.06;100392.03;4882062;29;20036;-62
2022/12/09 04:07:09;;;;;;;13.60;7.38;;;;;;;10.41;45.98;100386.09;4881642;29;20041;-62
2022/12/09 04:09:35;;;;;;;16.30;7.55;;;;;;;10.42;45.40;100392.31;4898239;29;20376;-62
2022/12/09 04:12:00;;;;;;;17.17;7.68;;;;;;;10.40;46.22;100386.25;4866333;29;20029;-62
2022/12/09 04:14:25;;;;;;;17.98;8.43;;;;;;;10.40;46.30;100373.72;4898305;29;20112;-62
2022/12/09 04:16:51;;;;;;;17.50;8.13;;;;;;;10.45;46.14;100384.84;4881417;29;20136;-62
2022/12/09 04:19:16;;;;;;;15.57;7.32;;;;;;;10.48;46.44;100381.06;4881314;29;20064;-62
2022/12/09 04:21:41;;;;;;;16.50;7.80;;;;;;;10.48;45.92;100381.06;4881155;29;20067;-62
2022/12/09 04:24:07;;;;;;;15.48;7.07;;;;;;;10.49;45.71;100386.28;4881287;29;20403;-62
2022/12/09 04:26:33;;;;;;;13.35;6.78;;;;;;;10.47;46.44;100384.72;4881648;29;20033;-62
2022/12/09 04:28:59;;;;;;;22.92;7.93;;;;;;;10.45;46.17;100386.69;4881322;29;20047;-62
2022/12/09 04:31:24;;;;;;;18.15;8.15;;;;;;;10.45;45.61;100390.22;4881258;29;20132;-62
2022/12/09 04:33:50;;;;;;;20.00;8.07;;;;;;;10.44;46.02;100385.00;4881243;29;20051;-62
2022/12/09 04:36:17;;;;;;;16.98;8.90;;;;;;;10.45;46.14;100386.69;4881164;29;20036;-62
2022/12/09 04:38:43;;;;;;;15.98;7.03;;;;;;;10.43;46.37;100389.50;4898301;29;20115;-62
2022/12/09 04:41:09;;;;;;;21.00;8.07;;;;;;;10.44;45.94;100379.66;4866733;29;20185;-62
2022/12/09 04:43:34;;;;;;;14.18;7.50;;;;;;;10.46;46.05;100378.53;4865724;29;20388;-62
2022/12/09 04:46:02;;;;;;;16.50;7.82;;;;;;;10.49;46.11;100382.75;4881353;29;20037;-62
2022/12/09 04:48:28;;;;;;;17.02;7.93;;;;;;;10.51;46.06;100370.91;4881312;29;20507;-62
2022/12/09 04:50:53;;;;;;;17.90;8.15;;;;;;;10.52;45.44;100371.78;4881755;29;20036;-62
2022/12/09 04:53:19;;;;;;;16.98;7.65;;;;;;;10.53;46.15;100368.94;4881303;29;20041;-62
2022/12/09 04:55:44;;;;;;;20.20;7.85;;;;;;;10.58;46.24;100381.91;4897904;29;20047;-62
2022/12/09 04:58:09;;;;;;;17.45;7.75;;;;;;;10.55;45.78;100374.16;4898391;29;20053;-62
2022/12/09 05:00:35;;;;;;;18.38;9.10;;;;;;;10.55;46.06;100379.53;4881217;29;20063;-62
2022/12/09 05:03:00;;;;;;;17.20;7.70;;;;;;;10.55;45.22;100382.19;4881435;29;20036;-62
2022/12/09 05:05:26;;;;;;;14.07;7.63;;;;;;;10.50;46.25;100371.03;4865627;29;20384;-62
2022/12/09 05:07:51;;;;;;;17.48;8.20;;;;;;;10.50;45.65;100379.06;4880973;29;20048;-62
2022/12/09 05:10:16;;;;;;;22.65;7.97;;;;;;;10.49;46.18;100369.38;4865622;29;20499;-61
2022/12/09 05:12:42;;;;;;;20.20;7.75;;;;;;;10.47;45.76;100368.63;4865346;29;20128;-62
2022/12/09 05:15:07;;;;;;;18.63;8.32;;;;;;;10.47;45.70;100377.53;4881028;29;20097;-62
2022/12/09 05:17:33;;;;;;;16.63;7.85;;;;;;;10.48;46.22;100367.66;4865587;29;20025;-62
2022/12/09 05:19:58;;;;;;;18.27;8.05;;;;;;;10.50;45.87;100363.00;4865404;29;20048;-62
2022/12/09 05:22:24;;;;;;;25.58;8.13;;;;;;;10.51;46.03;100364.72;4897632;29;20052;-62
2022/12/09 05:24:49;;;;;;;24.13;8.07;;;;;;;10.52;45.79;100363.75;4897606;29;20570;-62
2022/12/09 05:27:15;;;;;;;19.70;9.30;;;;;;;10.52;45.78;100361.06;4897447;29;20052;-62
2022/12/09 05:29:40;;;;;;;25.27;8.63;;;;;;;10.51;46.37;100352.19;4881437;29;20040;-62
2022/12/09 05:32:06;;;;;;;17.08;7.65;;;;;;;10.52;45.67;100361.88;4881112;29;20039;-62
2022/12/09 05:34:31;;;;;;;17.48;7.47;;;;;;;10.48;45.56;100359.63;4898315;29;20043;-62
2022/12/09 05:36:57;;;;;;;18.38;8.32;;;;;;;10.44;45.83;100347.53;4865182;29;20064;-62
2022/12/09 05:39:22;;;;;;;18.08;8.63;;;;;;;10.44;46.27;100352.88;4898691;29;20479;-62
2022/12/09 05:41:48;;;;;;;20.50;8.15;;;;;;;10.40;46.35;100352.31;4884674;29;20039;-62
2022/12/09 05:44:13;;;;;;;20.52;8.50;;;;;;;10.38;45.48;100350.75;4885268;29;20052;-62
2022/12/09 05:46:39;;;;;;;17.17;8.68;;;;;;;10.37;46.07;100362.44;4900941;29;20048;-62
2022/12/09 05:49:05;;;;;;;16.35;7.18;;;;;;;10.35;45.78;100359.06;4869489;29;20053;-62
2022/12/09 05:51:30;;;;;;;17.08;7.75;;;;;;;10.36;46.05;100361.59;4869711;29;20495;-62
2022/12/09 05:53:59;;;;;;;14.45;7.90;;;;;;;10.36;46.05;100350.88;4884850;29;20037;-62
2022/12/09 05:56:24;;;;;;;15.75;8.15;;;;;;;10.33;46.14;100353.84;4884092;29;20057;-62
2022/12/09 05:58:50;;;;;;;24.83;8.20;;;;;;;10.34;45.77;100357.38;4869050;29;20467;-62
2022/12/09 06:01:16;;;;;;;20.63;8.80;;;;;;;10.33;46.19;100355.69;4902181;29;20044;-62
2022/12/09 06:03:42;;;;;;;20.85;7.95;;;;;;;10.33;46.16;100361.03;4869840;29;20483;-62
2022/12/09 06:06:11;;;;;;;19.42;9.18;;;;;;;10.33;46.12;100358.38;4869330;29;20120;-62
2022/12/09 06:08:37;;;;;;;18.92;8.43;;;;;;;10.32;45.83;100359.34;4869432;29;20036;-62
2022/12/09 06:11:03;;;;;;;19.98;8.77;;;;;;;10.35;45.79;100364.41;4868193;29;20426;-62
2022/12/09 06:13:29;;;;;;;16.85;8.65;;;;;;;10.35;46.03;100357.25;4883945;29;20438;-62
2022/12/09 06:15:54;;;;;;;25.30;10.30;;;;;;;10.35;46.12;100343.84;4901042;29;20048;-62
2022/12/09 06:18:20;;;;;;;30.88;9.55;;;;;;;10.39;46.32;100347.06;4900458;29;20044;-62
2022/12/09 06:20:45;;;;;;;21.25;9.55;;;;;;;10.41;45.71;100345.13;4866322;29;20061;-62
2022/12/09 06:23:10;;;;;;;23.88;9.23;;;;;;;10.42;45.85;100344.13;4880584;29;20037;-62
2022/12/09 06:25:36;;;;;;;18.90;8.50;;;;;;;10.39;45.52;100350.59;4850661;29;20145;-62
2022/12/09 06:28:02;;;;;;;21.77;8.85;;;;;;;10.41;45.93;100347.81;4881741;29;20044;-62
2022/12/09 06:30:27;;;;;;;24.08;9.25;;;;;;;10.38;46.38;100353.44;4880586;29;20146;-62
2022/12/09 06:32:52;;;;;;;18.10;8.93;;;;;;;10.39;45.82;100353.28;4880602;29;20476;-62
2022/12/09 06:35:18;;;;;;;17.10;8.77;;;;;;;10.40;46.08;100351.47;4882322;29;20037;-62
2022/12/09 06:37:43;;;;;;;20.75;9.20;;;;;;;10.40;46.31;100352.31;4882321;29;20041;-62
2022/12/09 06:40:09;;;;;;;21.35;10.48;;;;;;;10.42;46.05;100350.31;4881466;29;20056;-62
2022/12/09 06:42:34;;;;;;;18.40;8.60;;;;;;;10.44;46.39;100353.69;4881292;29;20120;-62
2022/12/09 06:45:00;;;;;;;29.00;11.55;;;;;;;10.43;46.16;100348.50;4864845;29;20180;-62
2022/12/09 06:47:25;;;;;;;30.23;10.02;;;;;;;10.45;45.91;100354.56;4880037;29;20120;-62
2022/12/09 06:49:51;;;;;;;26.00;10.82;;;;;;;10.45;45.97;100343.84;4879878;29;20101;-61
2022/12/09 06:52:16;;;;;;;33.45;11.88;;;;;;;10.45;46.47;100351.88;4879929;29;20041;-61
2022/12/09 06:54:41;;;;;;;31.10;11.73;;;;;;;10.43;46.02;100356.53;4882251;29;20047;-61
2022/12/09 06:57:07;;;;;;;28.63;10.55;;;;;;;10.39;46.44;100350.59;4880332;29;20041;-61
2022/12/09 06:59:32;;;;;;;28.10;12.05;;;;;;;10.39;46.22;100355.09;4849503;29;20060;-62
2022/12/09 07:01:57;;;;;;;25.75;10.35;;;;;;;10.37;46.34;100359.75;4865256;29;20040;-61
2022/12/09 07:04:23;;;;;;;23.90;10.50;;;;;;;10.35;45.82;100361.75;4879537;29;20077;-61
2022/12/09 07:06:48;;;;;;;23.45;11.13;;;;;;;10.33;45.95;100367.22;4881113;29;20055;-61
2022/12/09 07:09:16;;;;;;;31.40;13.55;;;;;;;10.31;46.06;100363.00;4880932;29;20036;-62
2022/12/09 07:11:44;;;;;;;31.13;12.18;;;;;;;10.28;45.92;100361.44;4880942;29;20088;-62
2022/12/09 07:14:10;;;;;;;38.08;13.38;;;;;;;10.28;46.22;100369.47;4865737;29;20044;-62
2022/12/09 07:16:35;;;;;;;36.15;13.27;;;;;;;10.28;45.75;100379.31;4880505;29;20041;-62
2022/12/09 07:19:01;;;;;;;33.22;13.98;;;;;;;10.29;46.00;100375.69;4864935;29;20033;-62
2022/12/09 07:21:27;;;;;;;40.25;13.23;;;;;;;10.29;45.99;100378.34;4880456;29;20045;-62
2022/12/09 07:23:52;;;;;;;31.15;13.45;;;;;;;10.27;45.58;100377.66;4865032;29;20057;-62
2022/12/09 07:26:18;;;;;;;32.10;11.98;;;;;;;10.28;46.30;100379.31;4879592;29;20029;-62
2022/12/09 07:28:46;;;;;;;30.42;13.98;;;;;;;10.28;46.11;100385.53;4864367;29;20085;-61
2022/12/09 07:31:24;;;;;;;33.67;13.27;;;;;;;10.31;46.07;100387.09;4879637;29;20034;-61
2022/12/09 07:33:51;;;;;;;30.55;12.40;;;;;;;10.29;45.85;100381.88;4879364;29;20037;-62
2022/12/09 07:36:17;;;;;;;30.58;12.90;;;;;;;10.30;46.04;100394.25;4863922;29;20093;-61
2022/12/09 07:38:42;;;;;;;31.13;12.70;;;;;;;10.30;45.82;100377.38;4880658;29;20037;-62
2022/12/09 07:41:08;;;;;;;30.30;12.60;;;;;;;10.32;46.26;100380.75;4879825;29;20036;-62
2022/12/09 07:43:36;;;;;;;36.53;14.10;;;;;;;10.33;45.96;100385.97;4879779;29;20037;-61
2022/12/09 07:46:05;;;;;;;41.70;15.38;;;;;;;10.33;46.36;100385.97;4880897;29;20045;-61
2022/12/09 07:48:31;;;;;;;42.83;14.20;;;;;;;10.34;45.97;100393.03;4864697;29;20040;-61
2022/12/09 07:51:00;;;;;;;33.28;13.07;;;;;;;10.37;45.95;100391.88;4881446;29;20458;-62
2022/12/09 07:53:26;;;;;;;38.88;11.98;;;;;;;10.41;46.21;100398.69;4880978;29;20085;-61
2022/12/09 07:55:51;;;;;;;39.30;15.60;;;;;;;10.38;46.06;100390.91;4864457;29;20041;-61
2022/12/09 07:58:17;;;;;;;40.25;15.48;;;;;;;10.40;46.55;100397.81;4879224;29;20403;-62
2022/12/09 08:00:42;;;;;;;32.00;13.25;;;;;;;10.43;46.31;100392.19;4863856;29;20053;-62
2022/12/09 08:03:08;;;;;;;31.73;11.77;;;;;;;10.43;46.12;100384.16;4879584;29;20061;-61
2022/12/09 08:05:33;;;;;;;36.28;11.88;;;;;;;10.48;46.06;100407.84;4880040;29;20028;-62
2022/12/09 08:07:58;;;;;;;29.52;12.10;;;;;;;10.44;46.75;100385.00;4880466;29;20515;-62
2022/12/09 08:10:24;;;;;;;27.00;10.25;;;;;;;10.51;46.00;100399.53;4863907;29;20029;-61
2022/12/09 08:12:49;;;;;;;28.83;11.77;;;;;;;10.52;45.85;100403.91;4879104;29;20041;-61
2022/12/09 08:15:18;;;;;;;27.90;12.02;;;;;;;10.52;45.88;100401.22;4878331;29;20064;-62
2022/12/09 08:17:44;;;;;;;32.03;10.93;;;;;;;10.53;45.78;100400.22;4878975;29;20394;-62
2022/12/09 08:20:10;;;;;;;33.25;12.98;;;;;;;10.55;46.28;100400.09;4880763;29;20487;-62
2022/12/09 08:22:36;;;;;;;32.90;12.55;;;;;;;10.55;45.88;100398.28;4878830;29;20041;-62
2022/12/09 08:25:01;;;;;;;30.88;12.20;;;;;;;10.57;45.70;100401.66;4878715;29;20384;-62
2022/12/09 08:27:27;;;;;;;30.15;11.73;;;;;;;10.56;46.24;100393.75;4878187;29;20033;-61
2022/12/09 08:29:52;;;;;;;30.73;13.50;;;;;;;10.59;45.95;100399.66;4863116;29;20502;-62
2022/12/09 08:32:17;;;;;;;27.73;12.50;;;;;;;10.60;45.97;100396.00;4878239;29;20037;-62
2022/12/09 08:34:43;;;;;;;32.17;12.68;;;;;;;10.60;46.16;100396.00;4878765;29;20037;-62
2022/12/09 08:37:08;;;;;;;30.52;13.02;;;;;;;10.61;46.20;100394.19;4878501;29;20041;-62
2022/12/09 08:39:34;;;;;;;35.88;14.38;;;;;;;10.61;45.93;100397.69;4847163;29;20085;-62
2022/12/09 08:41:59;;;;;;;44.17;15.05;;;;;;;10.60;45.72;100390.66;4878429;29;20033;-62
2022/12/09 08:44:24;;;;;;;41.42;13.25;;;;;;;10.61;46.27;100396.88;4863165;29;20041;-61
2022/12/09 08:46:50;;;;;;;33.13;13.02;;;;;;;10.62;46.19;100399.38;4862783;29;20506;-61
2022/12/09 08:49:18;;;;;;;30.67;11.60;;;;;;;10.63;46.67;100400.25;4877922;29;20047;-62
2022/12/09 08:51:44;;;;;;;30.35;11.88;;;;;;;10.57;45.96;100390.94;4877894;29;20040;-62
2022/12/09 08:54:10;;;;;;;31.55;12.90;;;;;;;10.64;45.90;100408.13;4879188;29;20124;-62
2022/12/09 08:56:35;;;;;;;35.25;12.38;;;;;;;10.63;45.94;100395.72;4863274;29;20132;-62
2022/12/09 08:59:01;;;;;;;35.35;14.65;;;;;;;10.64;46.21;100396.56;4878232;29;20040;-62
2022/12/09 09:01:31;;;;;;;34.10;12.63;;;;;;;10.64;45.60;100401.91;4862421;29;20037;-62
2022/12/09 09:03:58;;;;;;;37.85;12.23;;;;;;;10.64;45.54;100404.59;4877883;29;20527;-61
2022/12/09 09:06:24;;;;;;;28.75;11.75;;;;;;;10.64;46.06;100401.91;4877978;29;20456;-62
2022/12/09 09:08:49;;;;;;;37.20;13.25;;;;;;;10.61;46.50;100397.69;4879393;29;20121;-62
2022/12/09 09:11:19;;;;;;;37.65;13.23;;;;;;;10.62;45.95;100404.75;4862282;29;20037;-62
2022/12/09 09:13:46;;;;;;;44.53;15.15;;;;;;;10.62;45.85;100407.41;4879585;29;20116;-62
2022/12/09 09:16:15;;;;;;;31.85;12.38;;;;;;;10.61;46.44;100407.56;4881650;29;20041;-62
2022/12/09 09:18:41;;;;;;;35.70;13.95;;;;;;;10.63;46.16;100410.97;4865909;29;20036;-62
2022/12/09 09:21:08;;;;;;;29.50;12.57;;;;;;;10.63;46.02;100408.28;4881112;29;20108;-61
2022/12/09 09:23:34;;;;;;;39.58;14.25;;;;;;;10.61;45.81;100408.41;4866330;29;20025;-62
2022/12/09 09:25:59;;;;;;;36.30;13.82;;;;;;;10.63;45.90;100413.63;4881840;29;20137;-62
2022/12/09 09:28:24;;;;;;;44.47;14.50;;;;;;;10.62;46.05;100403.88;4881541;29;20492;-62
2022/12/09 09:30:58;;;;;;;43.95;14.30;;;;;;;10.66;45.90;100410.69;4881362;29;20037;-62
2022/12/09 09:33:23;;;;;;;40.38;13.95;;;;;;;10.68;45.99;100414.91;4882341;29;20040;-62
2022/12/09 09:36:00;;;;;;;39.22;13.55;;;;;;;10.67;46.27;100413.19;4881530;29;20384;-62
2022/12/09 09:38:26;;;;;;;41.85;14.65;;;;;;;10.68;46.26;100425.63;4865550;29;20037;-61
2022/12/09 09:40:52;;;;;;;46.25;14.32;;;;;;;10.69;46.19;100419.25;4882291;29;20041;-62
2022/12/09 09:43:20;;;;;;;36.72;13.73;;;;;;;10.69;46.20;100415.75;4882323;29;20463;-62
2022/12/09 09:45:47;;;;;;;41.38;13.57;;;;;;;10.69;45.83;100416.56;4881075;29;20469;-62
2022/12/09 09:48:21;;;;;;;38.17;14.20;;;;;;;10.73;45.87;100419.81;4882893;29;20480;-62
2022/12/09 09:51:07;;;;;;;30.50;13.07;;;;;;;10.75;46.03;100421.38;4882645;29;20111;-62
2022/12/09 09:53:34;;;;;;;39.13;14.15;;;;;;;10.76;45.74;100411.50;4880986;29;20049;-61
2022/12/09 09:56:04;;;;;;;38.20;15.38;;;;;;;10.80;46.06;100410.25;4865429;29;20041;-62
2022/12/09 09:58:40;;;;;;;38.00;13.35;;;;;;;10.82;45.87;100422.53;4881900;29;20045;-62
2022/12/09 10:01:13;;;;;;;45.35;14.63;;;;;;;10.83;45.72;100421.53;4880715;29;20052;-61
2022/12/09 10:03:54;;;;;;;42.13;14.15;;;;;;;10.88;45.87;100410.41;4880684;29;20097;-62
2022/12/09 10:06:27;;;;;;;41.90;14.25;;;;;;;10.90;45.59;100414.63;4881786;29;20040;-62
2022/12/09 10:09:19;;;;;;;35.90;14.80;;;;;;;10.94;45.97;100416.00;4882111;29;20542;-61
2022/12/09 10:12:25;;;;;;;40.85;14.45;;;;;;;10.91;46.10;100408.28;4872436;29;20562;-62
2022/12/09 10:14:59;;;;;;;44.92;14.05;;;;;;;10.97;45.69;100421.09;4880621;29;20045;-61
2022/12/09 10:17:40;;;;;;;34.80;14.30;;;;;;;10.99;45.69;100416.47;4880463;29;20397;-60
2022/12/09 10:20:12;;;;;;;42.25;14.68;;;;;;;11.00;45.72;100415.44;4881856;29;20515;-61
2022/12/09 10:22:44;;;;;;;50.85;15.70;;;;;;;11.00;45.87;100407.41;4864883;29;20127;-61
2022/12/09 10:25:25;;;;;;;44.40;14.60;;;;;;;11.02;45.34;100413.50;4880317;29;20041;-61
2022/12/09 10:28:25;;;;;;;47.65;15.30;;;;;;;11.07;45.42;100410.38;4882174;29;20116;-61
2022/12/09 10:30:52;;;;;;;36.33;13.95;;;;;;;11.07;45.95;100415.75;4880762;29;20040;-61
2022/12/09 10:33:21;;;;;;;36.78;14.27;;;;;;;11.06;45.92;100406.84;4880465;29;20032;-61
2022/12/09 10:35:47;;;;;;;35.25;13.55;;;;;;;11.10;45.51;100404.75;4865275;29;20081;-61
2022/12/09 10:38:17;;;;;;;46.92;16.92;;;;;;;11.13;45.34;100406.28;4865068;29;20447;-61
2022/12/09 10:40:45;;;;;;;42.33;14.32;;;;;;;11.17;45.58;100407.72;4880615;29;20048;-61
2022/12/09 10:43:39;;;;;;;45.95;17.65;;;;;;;11.21;45.61;100390.31;4879882;29;20056;-61
2022/12/09 10:46:09;;;;;;;45.63;15.65;;;;;;;11.23;45.47;100393.69;4882360;29;20443;-61
2022/12/09 10:48:50;;;;;;;48.22;15.85;;;;;;;11.25;45.67;100394.44;4880840;29;20036;-61
2022/12/09 10:51:25;;;;;;;37.22;14.02;;;;;;;11.27;45.79;100392.44;4880121;29;20033;-61
2022/12/09 10:53:55;;;;;;;48.50;15.45;;;;;;;11.27;45.66;100395.13;4880845;29;20028;-61
2022/12/09 10:56:35;;;;;;;41.83;15.60;;;;;;;11.29;45.89;100398.50;4880136;29;20534;-61
2022/12/09 10:59:22;;;;;;;47.17;16.35;;;;;;;11.29;45.67;100398.50;4880131;29;20040;-61
2022/12/09 11:01:49;;;;;;;47.22;14.25;;;;;;;11.32;45.85;100398.19;4880147;29;20516;-61
2022/12/09 11:04:30;;;;;;;48.42;15.50;;;;;;;11.32;45.78;100395.53;4880461;29;20511;-61
2022/12/09 11:09:47;;;;;;;44.47;16.40;;;;;;;11.37;45.51;100390.56;4881151;29;20060;-61
2022/12/09 11:12:27;;;;;;;43.20;14.55;;;;;;;11.40;45.89;100390.28;4865374;29;20435;-61
2022/12/09 11:14:52;;;;;;;38.78;14.65;;;;;;;11.40;45.80;100396.50;4881863;29;20084;-61
2022/12/09 11:17:23;;;;;;;40.13;14.05;;;;;;;11.44;45.88;100391.69;4880257;29;20041;-61
2022/12/09 11:20:13;;;;;;;38.42;14.68;;;;;;;11.46;46.03;100387.03;4880062;29;20398;-61
2022/12/09 11:22:43;;;;;;;37.50;13.90;;;;;;;11.44;45.01;100380.97;4897187;29;20416;-60